ADDS METAR Data INFO
IDs: Format: Raw Decoded Include TAF

Data at: 0300 UTC 21 Oct 2017

KGBK 210255Z AUTO 09021KT 10SM 27/23 A3000 RMK A01
KGBK 210235Z AUTO 09021KT 10SM 28/23 A3000 RMK A01
KGBK 210215Z AUTO 09016KT 10SM 28/23 A3000 RMK A01
KGBK 210155Z AUTO 10017KT 10SM 28/23 A3000 RMK A01
KGBK 210135Z AUTO 09017KT 10SM 28/23 A3000 RMK A01
KGBK 210115Z AUTO 09016KT 10SM 28/23 A2999 RMK A01
KGBK 210055Z AUTO 10017G22KT 10SM 28/23 A2999 RMK A01
KGBK 210035Z AUTO 10017KT 10SM 27/23 A2997 RMK A01
KGBK 210015Z AUTO 10020KT 10SM 27/23 A2997 RMK A01
KGBK 202355Z AUTO 10019KT 10SM FEW024 FEW030 SCT050 28/23 A2997 RMK A01
KGBK 202335Z AUTO 09018KT 10SM FEW023 FEW027 FEW038 27/23 A2998 RMK A01
KGBK 202315Z AUTO 09016KT 10SM FEW022 FEW027 28/23 A2998 RMK A01
KGBK 202255Z AUTO 09015G21KT 10SM CLR 28/22 A2997 RMK A01
KGBK 202235Z AUTO 08010G15KT 10SM CLR 27/23 A2997 RMK A01
KGBK 202215Z AUTO 09012KT 10SM FEW027 SCT034 SCT042 28/22 A2997 RMK A01
KGBK 202155Z AUTO 08009G19KT 10SM FEW028 SCT035 28/22 A2998 RMK A01
KGBK 202135Z AUTO 09010G19KT 10SM CLR 27/22 A2997 RMK A01
KGBK 202115Z AUTO 09017KT 10SM FEW027 FEW032 27/22 A2997 RMK A01
KGBK 202055Z AUTO 08009KT 9SM FEW029 27/22 A2998 RMK A01
KGBK 202035Z AUTO 09010G16KT 10SM FEW026 27/22 A2998 RMK A01
KGBK 202015Z AUTO 08010G15KT 10SM FEW026 28/22 A2998 RMK A01
KGBK 201955Z AUTO 09014G19KT 8SM CLR 28/22 A2998 RMK A01
KGBK 191915Z AUTO 05012G20KT 10SM FEW018 FEW023 30/24 A3004 RMK A01
KGBK 191855Z AUTO 05011G16KT 9SM FEW018 SCT023 30/24 A3005 RMK A01
KGBK 191835Z AUTO 06010G17KT 030V090 5SM HZ FEW019 FEW024 30/24 A3006 RMK A01
KGBK 191815Z AUTO 04014KT 8SM FEW018 29/24 A3007 RMK A01
KGBK 191755Z AUTO 04013G22KT 7SM CLR 28/24 A3007 RMK A01
KGBK 191735Z AUTO 04014G21KT 9SM FEW020 28/23 A3008 RMK A01
KGBK 191715Z AUTO 04013KT 9SM FEW020 29/23 A3009 RMK A01
KGBK 191655Z AUTO 05012KT 10SM FEW021 29/23 A3009 RMK A01
KGBK 191635Z AUTO 05010G17KT 10SM FEW021 29/23 A3010 RMK A01
KGBK 191615Z AUTO 05010KT 8SM FEW028 29/23 A3010 RMK A01
KGBK 191555Z AUTO 05010G17KT 10SM FEW028 29/23 A3010 RMK A01
KGBK 191535Z AUTO 05011KT 9SM FEW022 29/23 A3010 RMK A01